sensor_id;sensor_type;location;lat;lon;timestamp;pressure;altitude;pressure_sealevel;temperature
66403;BMP180;53212;52.112;5.144;2022-12-10T00:00:42;100757.80;;;-0.40
66403;BMP180;53212;52.112;5.144;2022-12-10T00:03:07;100756.80;;;-0.40
66403;BMP180;53212;52.112;5.144;2022-12-10T00:05:34;100751.40;;;-0.40
66403;BMP180;53212;52.112;5.144;2022-12-10T00:07:59;100746.60;;;-0.44
66403;BMP180;53212;52.112;5.144;2022-12-10T00:10:25;100742.60;;;-0.50
66403;BMP180;53212;52.112;5.144;2022-12-10T00:12:50;100741.00;;;-0.50
66403;BMP180;53212;52.112;5.144;2022-12-10T00:15:16;100748.00;;;-0.60
66403;BMP180;53212;52.112;5.144;2022-12-10T00:17:42;100745.00;;;-0.60
66403;BMP180;53212;52.112;5.144;2022-12-10T00:20:09;100749.80;;;-0.60
66403;BMP180;53212;52.112;5.144;2022-12-10T00:22:35;100759.00;;;-0.68
66403;BMP180;53212;52.112;5.144;2022-12-10T00:25:00;100755.60;;;-0.68
66403;BMP180;53212;52.112;5.144;2022-12-10T00:27:26;100754.80;;;-0.70
66403;BMP180;53212;52.112;5.144;2022-12-10T00:29:51;100758.00;;;-0.70
66403;BMP180;53212;52.112;5.144;2022-12-10T00:32:16;100756.20;;;-0.70
66403;BMP180;53212;52.112;5.144;2022-12-10T00:34:42;100759.80;;;-0.70
66403;BMP180;53212;52.112;5.144;2022-12-10T00:37:07;100762.60;;;-0.70
66403;BMP180;53212;52.112;5.144;2022-12-10T00:39:33;100760.60;;;-0.70
66403;BMP180;53212;52.112;5.144;2022-12-10T00:41:58;100759.00;;;-0.70
66403;BMP180;53212;52.112;5.144;2022-12-10T00:44:24;100760.40;;;-0.80
66403;BMP180;53212;52.112;5.144;2022-12-10T00:46:49;100758.40;;;-0.80
66403;BMP180;53212;52.112;5.144;2022-12-10T00:49:14;100763.80;;;-0.80
66403;BMP180;53212;52.112;5.144;2022-12-10T00:51:40;100762.40;;;-0.82
66403;BMP180;53212;52.112;5.144;2022-12-10T00:54:07;100766.60;;;-0.90
66403;BMP180;53212;52.112;5.144;2022-12-10T00:56:33;100764.00;;;-0.90
66403;BMP180;53212;52.112;5.144;2022-12-10T00:59:00;100768.20;;;-0.90
66403;BMP180;53212;52.112;5.144;2022-12-10T01:01:39;100766.60;;;-0.80
66403;BMP180;53212;52.112;5.144;2022-12-10T01:04:09;100769.60;;;-0.76
66403;BMP180;53212;52.112;5.144;2022-12-10T01:06:42;100767.80;;;-0.70
66403;BMP180;53212;52.112;5.144;2022-12-10T01:09:10;100766.60;;;-0.64
66403;BMP180;53212;52.112;5.144;2022-12-10T01:11:39;100768.00;;;-0.60
66403;BMP180;53212;52.112;5.144;2022-12-10T01:14:08;100772.60;;;-0.60
66403;BMP180;53212;52.112;5.144;2022-12-10T01:16:34;100774.60;;;-0.50
66403;BMP180;53212;52.112;5.144;2022-12-10T01:18:59;100779.40;;;-0.50
66403;BMP180;53212;52.112;5.144;2022-12-10T01:21:28;100781.20;;;-0.50
66403;BMP180;53212;52.112;5.144;2022-12-10T01:23:53;100784.60;;;-0.50
66403;BMP180;53212;52.112;5.144;2022-12-10T01:26:28;100782.60;;;-0.50
66403;BMP180;53212;52.112;5.144;2022-12-10T01:28:55;100793.40;;;-0.50
66403;BMP180;53212;52.112;5.144;2022-12-10T01:31:31;100788.60;;;-0.40
66403;BMP180;53212;52.112;5.144;2022-12-10T01:33:58;100791.80;;;-0.38
66403;BMP180;53212;52.112;5.144;2022-12-10T01:36:40;100793.40;;;-0.40
66403;BMP180;53212;52.112;5.144;2022-12-10T01:39:09;100788.40;;;-0.40
66403;BMP180;53212;52.112;5.144;2022-12-10T01:41:41;100793.20;;;-0.40
66403;BMP180;53212;52.112;5.144;2022-12-10T01:46:41;100799.60;;;-0.50
66403;BMP180;53212;52.112;5.144;2022-12-10T01:51:43;100800.80;;;-0.50
66403;BMP180;53212;52.112;5.144;2022-12-10T01:54:14;100809.20;;;-0.50
66403;BMP180;53212;52.112;5.144;2022-12-10T01:56:47;100809.80;;;-0.50
66403;BMP180;53212;52.112;5.144;2022-12-10T01:59:15;100811.80;;;-0.42
66403;BMP180;53212;52.112;5.144;2022-12-10T02:02:10;100824.20;;;-0.40
66403;BMP180;53212;52.112;5.144;2022-12-10T02:05:14;100810.00;;;-0.52
66403;BMP180;53212;52.112;5.144;2022-12-10T02:07:54;100809.40;;;-0.50
66403;BMP180;53212;52.112;5.144;2022-12-10T02:13:34;100807.20;;;-0.60
66403;BMP180;53212;52.112;5.144;2022-12-10T02:16:38;100810.00;;;-0.70
66403;BMP180;53212;52.112;5.144;2022-12-10T02:19:42;100809.80;;;-0.76
66403;BMP180;53212;52.112;5.144;2022-12-10T02:22:13;100806.00;;;-0.80
66403;BMP180;53212;52.112;5.144;2022-12-10T02:24:40;100804.40;;;-0.80
66403;BMP180;53212;52.112;5.144;2022-12-10T02:29:57;100801.20;;;-0.64
66403;BMP180;53212;52.112;5.144;2022-12-10T02:32:30;100807.60;;;-0.60
66403;BMP180;53212;52.112;5.144;2022-12-10T02:34:59;100801.40;;;-0.60
66403;BMP180;53212;52.112;5.144;2022-12-10T02:37:56;100805.00;;;-0.50
66403;BMP180;53212;52.112;5.144;2022-12-10T02:40:30;100805.40;;;-0.40
66403;BMP180;53212;52.112;5.144;2022-12-10T02:42:57;100807.40;;;-0.40
66403;BMP180;53212;52.112;5.144;2022-12-10T02:45:26;100801.20;;;-0.40
66403;BMP180;53212;52.112;5.144;2022-12-10T02:47:56;100804.40;;;-0.30
66403;BMP180;53212;52.112;5.144;2022-12-10T02:50:23;100800.00;;;-0.30
66403;BMP180;53212;52.112;5.144;2022-12-10T02:52:49;100805.80;;;-0.30
66403;BMP180;53212;52.112;5.144;2022-12-10T02:55:15;100809.40;;;-0.20
66403;BMP180;53212;52.112;5.144;2022-12-10T03:00:21;100805.80;;;-0.12
66403;BMP180;53212;52.112;5.144;2022-12-10T03:05:50;100808.40;;;0.00
66403;BMP180;53212;52.112;5.144;2022-12-10T03:09:02;100814.60;;;0.00
66403;BMP180;53212;52.112;5.144;2022-12-10T03:11:28;100810.20;;;-0.10
66403;BMP180;53212;52.112;5.144;2022-12-10T03:14:15;100807.80;;;-0.10
66403;BMP180;53212;52.112;5.144;2022-12-10T03:16:47;100814.00;;;-0.10
66403;BMP180;53212;52.112;5.144;2022-12-10T03:19:18;100806.40;;;-0.10
66403;BMP180;53212;52.112;5.144;2022-12-10T03:21:47;100807.00;;;-0.20
66403;BMP180;53212;52.112;5.144;2022-12-10T03:24:13;100800.00;;;-0.20
66403;BMP180;53212;52.112;5.144;2022-12-10T03:26:41;100797.20;;;-0.10
66403;BMP180;53212;52.112;5.144;2022-12-10T03:29:16;100806.80;;;-0.10
66403;BMP180;53212;52.112;5.144;2022-12-10T03:31:43;100803.20;;;-0.10
66403;BMP180;53212;52.112;5.144;2022-12-10T03:34:10;100801.40;;;0.00
66403;BMP180;53212;52.112;5.144;2022-12-10T03:36:36;100798.00;;;0.02
66403;BMP180;53212;52.112;5.144;2022-12-10T03:39:03;100797.20;;;-0.10
66403;BMP180;53212;52.112;5.144;2022-12-10T03:41:30;100792.40;;;-0.10
66403;BMP180;53212;52.112;5.144;2022-12-10T03:43:58;100787.20;;;-0.10
66403;BMP180;53212;52.112;5.144;2022-12-10T03:46:27;100784.40;;;-0.02
66403;BMP180;53212;52.112;5.144;2022-12-10T03:48:54;100791.20;;;0.00
66403;BMP180;53212;52.112;5.144;2022-12-10T03:51:21;100795.40;;;0.00
66403;BMP180;53212;52.112;5.144;2022-12-10T03:53:47;100799.80;;;-0.10
66403;BMP180;53212;52.112;5.144;2022-12-10T03:56:18;100801.20;;;-0.10
66403;BMP180;53212;52.112;5.144;2022-12-10T03:58:44;100805.20;;;-0.10
66403;BMP180;53212;52.112;5.144;2022-12-10T04:01:09;100795.80;;;-0.10
66403;BMP180;53212;52.112;5.144;2022-12-10T04:03:37;100794.40;;;-0.10
66403;BMP180;53212;52.112;5.144;2022-12-10T04:06:07;100795.20;;;-0.16
66403;BMP180;53212;52.112;5.144;2022-12-10T04:08:33;100794.40;;;-0.20
66403;BMP180;53212;52.112;5.144;2022-12-10T04:11:05;100795.00;;;-0.20
66403;BMP180;53212;52.112;5.144;2022-12-10T04:13:35;100799.80;;;-0.20
66403;BMP180;53212;52.112;5.144;2022-12-10T04:16:20;100799.40;;;-0.20
66403;BMP180;53212;52.112;5.144;2022-12-10T04:18:52;100798.80;;;-0.20
66403;BMP180;53212;52.112;5.144;2022-12-10T04:21:18;100799.60;;;-0.20
66403;BMP180;53212;52.112;5.144;2022-12-10T04:24:03;100805.40;;;-0.30
66403;BMP180;53212;52.112;5.144;2022-12-10T04:26:51;100803.80;;;-0.30
66403;BMP180;53212;52.112;5.144;2022-12-10T04:29:22;100801.00;;;-0.30
66403;BMP180;53212;52.112;5.144;2022-12-10T04:31:48;100801.60;;;-0.22
66403;BMP180;53212;52.112;5.144;2022-12-10T04:34:14;100808.20;;;-0.20
66403;BMP180;53212;52.112;5.144;2022-12-10T04:36:39;100798.20;;;-0.20
66403;BMP180;53212;52.112;5.144;2022-12-10T04:39:05;100802.20;;;-0.18
66403;BMP180;53212;52.112;5.144;2022-12-10T04:41:30;100795.80;;;-0.10
66403;BMP180;53212;52.112;5.144;2022-12-10T04:43:56;100801.80;;;-0.10
66403;BMP180;53212;52.112;5.144;2022-12-10T04:46:21;100815.80;;;-0.10
66403;BMP180;53212;52.112;5.144;2022-12-10T04:48:47;100809.20;;;-0.10
66403;BMP180;53212;52.112;5.144;2022-12-10T04:51:12;100804.80;;;-0.10
66403;BMP180;53212;52.112;5.144;2022-12-10T04:53:38;100805.60;;;-0.18
66403;BMP180;53212;52.112;5.144;2022-12-10T04:56:04;100808.40;;;-0.20
66403;BMP180;53212;52.112;5.144;2022-12-10T04:58:32;100811.40;;;-0.14
66403;BMP180;53212;52.112;5.144;2022-12-10T05:01:06;100811.00;;;-0.10
66403;BMP180;53212;52.112;5.144;2022-12-10T05:03:33;100811.60;;;-0.10
66403;BMP180;53212;52.112;5.144;2022-12-10T05:06:10;100812.60;;;-0.10
66403;BMP180;53212;52.112;5.144;2022-12-10T05:08:38;100810.60;;;-0.10
66403;BMP180;53212;52.112;5.144;2022-12-10T05:11:08;100811.00;;;-0.10
66403;BMP180;53212;52.112;5.144;2022-12-10T05:13:34;100811.40;;;-0.10
66403;BMP180;53212;52.112;5.144;2022-12-10T05:16:05;100809.20;;;-0.20
66403;BMP180;53212;52.112;5.144;2022-12-10T05:18:31;100816.60;;;-0.26
66403;BMP180;53212;52.112;5.144;2022-12-10T05:21:02;100812.40;;;-0.30
66403;BMP180;53212;52.112;5.144;2022-12-10T05:23:28;100809.80;;;-0.30
66403;BMP180;53212;52.112;5.144;2022-12-10T05:26:02;100811.60;;;-0.30
66403;BMP180;53212;52.112;5.144;2022-12-10T05:28:30;100806.20;;;-0.28
66403;BMP180;53212;52.112;5.144;2022-12-10T05:30:57;100803.20;;;-0.30
66403;BMP180;53212;52.112;5.144;2022-12-10T05:33:24;100808.00;;;-0.20
66403;BMP180;53212;52.112;5.144;2022-12-10T05:36:00;100805.80;;;-0.20
66403;BMP180;53212;52.112;5.144;2022-12-10T05:38:27;100806.00;;;-0.20
66403;BMP180;53212;52.112;5.144;2022-12-10T05:40:53;100809.20;;;-0.20
66403;BMP180;53212;52.112;5.144;2022-12-10T05:43:19;100816.20;;;-0.10
66403;BMP180;53212;52.112;5.144;2022-12-10T05:45:46;100817.40;;;-0.10
66403;BMP180;53212;52.112;5.144;2022-12-10T05:48:14;100816.60;;;-0.20
66403;BMP180;53212;52.112;5.144;2022-12-10T05:50:41;100814.60;;;-0.20
66403;BMP180;53212;52.112;5.144;2022-12-10T05:53:07;100813.00;;;-0.20
66403;BMP180;53212;52.112;5.144;2022-12-10T05:55:33;100813.60;;;-0.20
66403;BMP180;53212;52.112;5.144;2022-12-10T05:58:02;100818.60;;;-0.20
66403;BMP180;53212;52.112;5.144;2022-12-10T06:00:27;100822.00;;;-0.20
66403;BMP180;53212;52.112;5.144;2022-12-10T06:02:54;100823.00;;;-0.20
66403;BMP180;53212;52.112;5.144;2022-12-10T06:05:19;100829.60;;;-0.20
66403;BMP180;53212;52.112;5.144;2022-12-10T06:07:45;100823.80;;;-0.22
66403;BMP180;53212;52.112;5.144;2022-12-10T06:10:11;100829.80;;;-0.20
66403;BMP180;53212;52.112;5.144;2022-12-10T06:12:38;100829.20;;;-0.20
66403;BMP180;53212;52.112;5.144;2022-12-10T06:15:05;100832.20;;;-0.20
66403;BMP180;53212;52.112;5.144;2022-12-10T06:17:31;100824.80;;;-0.22
66403;BMP180;53212;52.112;5.144;2022-12-10T06:19:57;100830.60;;;-0.30
66403;BMP180;53212;52.112;5.144;2022-12-10T06:22:23;100830.60;;;-0.30
66403;BMP180;53212;52.112;5.144;2022-12-10T06:24:49;100832.20;;;-0.30
66403;BMP180;53212;52.112;5.144;2022-12-10T06:27:14;100833.60;;;-0.30
66403;BMP180;53212;52.112;5.144;2022-12-10T06:29:40;100834.80;;;-0.30
66403;BMP180;53212;52.112;5.144;2022-12-10T06:32:06;100837.00;;;-0.38
66403;BMP180;53212;52.112;5.144;2022-12-10T06:34:31;100839.00;;;-0.40
66403;BMP180;53212;52.112;5.144;2022-12-10T06:36:57;100834.60;;;-0.40
66403;BMP180;53212;52.112;5.144;2022-12-10T06:39:22;100846.20;;;-0.30
66403;BMP180;53212;52.112;5.144;2022-12-10T06:41:47;100844.40;;;-0.30
66403;BMP180;53212;52.112;5.144;2022-12-10T06:44:13;100848.20;;;-0.30
66403;BMP180;53212;52.112;5.144;2022-12-10T06:46:40;100845.20;;;-0.30
66403;BMP180;53212;52.112;5.144;2022-12-10T06:49:07;100847.00;;;-0.30
66403;BMP180;53212;52.112;5.144;2022-12-10T06:51:33;100847.20;;;-0.26
66403;BMP180;53212;52.112;5.144;2022-12-10T06:53:58;100842.80;;;-0.30
66403;BMP180;53212;52.112;5.144;2022-12-10T06:56:24;100848.20;;;-0.26
66403;BMP180;53212;52.112;5.144;2022-12-10T06:58:50;100847.20;;;-0.30
66403;BMP180;53212;52.112;5.144;2022-12-10T07:01:21;100855.00;;;-0.30
66403;BMP180;53212;52.112;5.144;2022-12-10T07:03:51;100858.60;;;-0.30
66403;BMP180;53212;52.112;5.144;2022-12-10T07:06:17;100866.60;;;-0.40
66403;BMP180;53212;52.112;5.144;2022-12-10T07:08:46;100870.60;;;-0.40
66403;BMP180;53212;52.112;5.144;2022-12-10T07:11:14;100874.60;;;-0.40
66403;BMP180;53212;52.112;5.144;2022-12-10T07:13:40;100878.80;;;-0.38
66403;BMP180;53212;52.112;5.144;2022-12-10T07:16:21;100879.80;;;-0.30
66403;BMP180;53212;52.112;5.144;2022-12-10T07:18:47;100878.40;;;-0.30
66403;BMP180;53212;52.112;5.144;2022-12-10T07:21:32;100878.20;;;-0.30
66403;BMP180;53212;52.112;5.144;2022-12-10T07:24:18;100880.40;;;-0.30
66403;BMP180;53212;52.112;5.144;2022-12-10T07:26:45;100883.80;;;-0.20
66403;BMP180;53212;52.112;5.144;2022-12-10T07:29:18;100886.00;;;-0.20
66403;BMP180;53212;52.112;5.144;2022-12-10T07:31:44;100880.40;;;-0.24
66403;BMP180;53212;52.112;5.144;2022-12-10T07:34:11;100884.40;;;-0.30
66403;BMP180;53212;52.112;5.144;2022-12-10T07:36:37;100883.80;;;-0.30
66403;BMP180;53212;52.112;5.144;2022-12-10T07:39:07;100890.00;;;-0.24
66403;BMP180;53212;52.112;5.144;2022-12-10T07:41:33;100891.40;;;-0.26
66403;BMP180;53212;52.112;5.144;2022-12-10T07:44:00;100894.60;;;-0.20
66403;BMP180;53212;52.112;5.144;2022-12-10T07:46:29;100895.40;;;-0.20
66403;BMP180;53212;52.112;5.144;2022-12-10T07:48:56;100889.20;;;-0.20
66403;BMP180;53212;52.112;5.144;2022-12-10T07:51:22;100891.00;;;-0.20
66403;BMP180;53212;52.112;5.144;2022-12-10T07:53:50;100892.00;;;-0.20
66403;BMP180;53212;52.112;5.144;2022-12-10T07:56:16;100896.00;;;-0.12
66403;BMP180;53212;52.112;5.144;2022-12-10T07:58:44;100896.60;;;-0.20
66403;BMP180;53212;52.112;5.144;2022-12-10T08:01:16;100898.60;;;-0.24
66403;BMP180;53212;52.112;5.144;2022-12-10T08:03:42;100894.80;;;-0.30
66403;BMP180;53212;52.112;5.144;2022-12-10T08:06:12;100899.20;;;-0.30
66403;BMP180;53212;52.112;5.144;2022-12-10T08:08:39;100893.80;;;-0.30
66403;BMP180;53212;52.112;5.144;2022-12-10T08:11:06;100897.00;;;-0.30
66403;BMP180;53212;52.112;5.144;2022-12-10T08:13:33;100898.60;;;-0.30
66403;BMP180;53212;52.112;5.144;2022-12-10T08:16:20;100896.80;;;-0.30
66403;BMP180;53212;52.112;5.144;2022-12-10T08:18:48;100897.00;;;-0.30
66403;BMP180;53212;52.112;5.144;2022-12-10T08:21:20;100895.20;;;-0.30
66403;BMP180;53212;52.112;5.144;2022-12-10T08:23:47;100893.00;;;-0.22
66403;BMP180;53212;52.112;5.144;2022-12-10T08:26:16;100898.00;;;-0.20
66403;BMP180;53212;52.112;5.144;2022-12-10T08:28:42;100901.80;;;-0.20
66403;BMP180;53212;52.112;5.144;2022-12-10T08:31:10;100908.40;;;-0.20
66403;BMP180;53212;52.112;5.144;2022-12-10T08:33:37;100914.40;;;-0.20
66403;BMP180;53212;52.112;5.144;2022-12-10T08:36:05;100915.60;;;-0.20
66403;BMP180;53212;52.112;5.144;2022-12-10T08:38:31;100920.80;;;-0.20
66403;BMP180;53212;52.112;5.144;2022-12-10T08:40:57;100920.20;;;-0.20
66403;BMP180;53212;52.112;5.144;2022-12-10T08:43:23;100924.60;;;-0.20
66403;BMP180;53212;52.112;5.144;2022-12-10T08:45:49;100926.20;;;-0.20
66403;BMP180;53212;52.112;5.144;2022-12-10T08:48:14;100931.60;;;-0.20
66403;BMP180;53212;52.112;5.144;2022-12-10T08:50:40;100935.60;;;-0.20
66403;BMP180;53212;52.112;5.144;2022-12-10T08:53:05;100946.60;;;-0.20
66403;BMP180;53212;52.112;5.144;2022-12-10T08:55:30;100942.20;;;-0.20
66403;BMP180;53212;52.112;5.144;2022-12-10T08:57:59;100938.60;;;-0.10
66403;BMP180;53212;52.112;5.144;2022-12-10T09:00:26;100943.60;;;-0.10
66403;BMP180;53212;52.112;5.144;2022-12-10T09:02:51;100941.20;;;-0.10
66403;BMP180;53212;52.112;5.144;2022-12-10T09:05:17;100952.60;;;-0.10
66403;BMP180;53212;52.112;5.144;2022-12-10T09:07:42;100959.20;;;-0.06
66403;BMP180;53212;52.112;5.144;2022-12-10T09:10:10;100953.20;;;0.00
66403;BMP180;53212;52.112;5.144;2022-12-10T09:12:39;100960.40;;;0.00
66403;BMP180;53212;52.112;5.144;2022-12-10T09:15:06;100960.20;;;0.00
66403;BMP180;53212;52.112;5.144;2022-12-10T09:17:35;100962.40;;;0.10
66403;BMP180;53212;52.112;5.144;2022-12-10T09:20:03;100960.60;;;0.10
66403;BMP180;53212;52.112;5.144;2022-12-10T09:22:29;100967.80;;;0.00
66403;BMP180;53212;52.112;5.144;2022-12-10T09:24:54;100967.20;;;0.00
66403;BMP180;53212;52.112;5.144;2022-12-10T09:27:20;100973.60;;;-0.04
66403;BMP180;53212;52.112;5.144;2022-12-10T09:29:45;100976.80;;;0.00
66403;BMP180;53212;52.112;5.144;2022-12-10T09:32:11;100977.80;;;0.10
66403;BMP180;53212;52.112;5.144;2022-12-10T09:34:36;100979.80;;;0.10
66403;BMP180;53212;52.112;5.144;2022-12-10T09:37:02;100982.40;;;0.00
66403;BMP180;53212;52.112;5.144;2022-12-10T09:39:27;100981.60;;;0.06
66403;BMP180;53212;52.112;5.144;2022-12-10T09:42:56;100983.20;;;0.10
66403;BMP180;53212;52.112;5.144;2022-12-10T09:51:25;100985.40;;;0.00
66403;BMP180;53212;52.112;5.144;2022-12-10T09:53:53;100988.60;;;0.00
66403;BMP180;53212;52.112;5.144;2022-12-10T09:56:34;100994.40;;;0.00
66403;BMP180;53212;52.112;5.144;2022-12-10T09:59:11;100989.00;;;0.30
66403;BMP180;53212;52.112;5.144;2022-12-10T10:01:40;100985.40;;;0.96
66403;BMP180;53212;52.112;5.144;2022-12-10T10:04:06;100989.20;;;1.60
66403;BMP180;53212;52.112;5.144;2022-12-10T10:06:32;100989.80;;;2.06
66403;BMP180;53212;52.112;5.144;2022-12-10T10:09:00;100992.40;;;2.56
66403;BMP180;53212;52.112;5.144;2022-12-10T10:11:32;100994.60;;;2.84
66403;BMP180;53212;52.112;5.144;2022-12-10T10:14:13;100991.80;;;2.80
66403;BMP180;53212;52.112;5.144;2022-12-10T10:16:54;100990.60;;;2.80
66403;BMP180;53212;52.112;5.144;2022-12-10T10:19:31;100987.80;;;2.80
66403;BMP180;53212;52.112;5.144;2022-12-10T10:21:59;101005.00;;;2.70
66403;BMP180;53212;52.112;5.144;2022-12-10T10:24:38;101005.20;;;2.80
66403;BMP180;53212;52.112;5.144;2022-12-10T10:27:18;101003.20;;;2.90
66403;BMP180;53212;52.112;5.144;2022-12-10T10:29:49;101001.00;;;2.96
66403;BMP180;53212;52.112;5.144;2022-12-10T10:32:22;100998.20;;;3.00
66403;BMP180;53212;52.112;5.144;2022-12-10T10:34:57;101001.60;;;2.96
66403;BMP180;53212;52.112;5.144;2022-12-10T10:37:27;101000.20;;;2.90
66403;BMP180;53212;52.112;5.144;2022-12-10T10:39:55;101001.20;;;2.70
66403;BMP180;53212;52.112;5.144;2022-12-10T10:42:38;101004.20;;;2.36
66403;BMP180;53212;52.112;5.144;2022-12-10T10:45:47;100996.40;;;1.90
66403;BMP180;53212;52.112;5.144;2022-12-10T10:48:21;101001.80;;;1.50
66403;BMP180;53212;52.112;5.144;2022-12-10T10:53:47;100995.60;;;1.10
66403;BMP180;53212;52.112;5.144;2022-12-10T10:59:02;101000.40;;;0.90
66403;BMP180;53212;52.112;5.144;2022-12-10T11:02:14;100998.60;;;0.86
66403;BMP180;53212;52.112;5.144;2022-12-10T11:09:48;101012.40;;;0.60
66403;BMP180;53212;52.112;5.144;2022-12-10T11:12:34;101003.20;;;0.62
66403;BMP180;53212;52.112;5.144;2022-12-10T11:15:00;101008.60;;;0.68
66403;BMP180;53212;52.112;5.144;2022-12-10T11:17:27;101008.80;;;0.60
66403;BMP180;53212;52.112;5.144;2022-12-10T11:20:16;101004.80;;;0.50
66403;BMP180;53212;52.112;5.144;2022-12-10T11:23:01;101002.40;;;0.50
66403;BMP180;53212;52.112;5.144;2022-12-10T11:26:01;101001.60;;;0.58
66403;BMP180;53212;52.112;5.144;2022-12-10T11:43:04;100983.80;;;0.50
66403;BMP180;53212;52.112;5.144;2022-12-10T11:51:22;100990.20;;;0.40
66403;BMP180;53212;52.112;5.144;2022-12-10T11:56:47;100994.00;;;0.40
66403;BMP180;53212;52.112;5.144;2022-12-10T11:59:26;100995.20;;;0.40
66403;BMP180;53212;52.112;5.144;2022-12-10T12:14:16;100993.00;;;2.20
66403;BMP180;53212;52.112;5.144;2022-12-10T12:19:53;100993.60;;;3.02
66403;BMP180;53212;52.112;5.144;2022-12-10T12:22:27;100996.80;;;3.30
66403;BMP180;53212;52.112;5.144;2022-12-10T12:25:15;101001.00;;;3.30
66403;BMP180;53212;52.112;5.144;2022-12-10T12:27:48;100994.00;;;3.46
66403;BMP180;53212;52.112;5.144;2022-12-10T12:30:19;100995.60;;;3.60
66403;BMP180;53212;52.112;5.144;2022-12-10T12:35:48;100998.60;;;3.40
66403;BMP180;53212;52.112;5.144;2022-12-10T12:38:38;100989.00;;;2.86
66403;BMP180;53212;52.112;5.144;2022-12-10T12:41:32;100990.60;;;2.28
66403;BMP180;53212;52.112;5.144;2022-12-10T12:47:34;100989.60;;;1.50
66403;BMP180;53212;52.112;5.144;2022-12-10T12:50:05;100988.20;;;1.30
66403;BMP180;53212;52.112;5.144;2022-12-10T12:52:53;100991.40;;;1.10
66403;BMP180;53212;52.112;5.144;2022-12-10T12:56:21;100986.80;;;0.90
66403;BMP180;53212;52.112;5.144;2022-12-10T13:01:38;100981.80;;;0.80
66403;BMP180;53212;52.112;5.144;2022-12-10T13:04:06;100986.20;;;0.80
66403;BMP180;53212;52.112;5.144;2022-12-10T13:06:38;100984.00;;;0.80
66403;BMP180;53212;52.112;5.144;2022-12-10T13:17:36;100988.80;;;1.00
66403;BMP180;53212;52.112;5.144;2022-12-10T13:20:29;100987.00;;;1.00
66403;BMP180;53212;52.112;5.144;2022-12-10T13:23:27;100997.40;;;1.10
66403;BMP180;53212;52.112;5.144;2022-12-10T13:28:31;100993.20;;;1.20
66403;BMP180;53212;52.112;5.144;2022-12-10T13:40:08;100988.00;;;1.22
66403;BMP180;53212;52.112;5.144;2022-12-10T13:42:45;100983.80;;;1.26
66403;BMP180;53212;52.112;5.144;2022-12-10T13:45:34;100996.60;;;1.30
66403;BMP180;53212;52.112;5.144;2022-12-10T13:48:26;101001.20;;;1.22
66403;BMP180;53212;52.112;5.144;2022-12-10T13:54:18;101015.60;;;1.10
66403;BMP180;53212;52.112;5.144;2022-12-10T14:08:36;101015.00;;;0.90
66403;BMP180;53212;52.112;5.144;2022-12-10T14:11:08;101013.80;;;0.80
66403;BMP180;53212;52.112;5.144;2022-12-10T14:13:46;101015.80;;;0.80
66403;BMP180;53212;52.112;5.144;2022-12-10T14:16:15;101014.80;;;0.80
66403;BMP180;53212;52.112;5.144;2022-12-10T14:18:52;101023.60;;;0.78
66403;BMP180;53212;52.112;5.144;2022-12-10T14:21:18;101029.00;;;0.74
66403;BMP180;53212;52.112;5.144;2022-12-10T14:23:46;101038.40;;;0.70
66403;BMP180;53212;52.112;5.144;2022-12-10T14:28:47;101034.40;;;0.58
66403;BMP180;53212;52.112;5.144;2022-12-10T14:31:21;101028.00;;;0.50
66403;BMP180;53212;52.112;5.144;2022-12-10T14:33:49;101039.80;;;0.50
66403;BMP180;53212;52.112;5.144;2022-12-10T14:36:27;101044.00;;;0.40
66403;BMP180;53212;52.112;5.144;2022-12-10T14:38:54;101039.20;;;0.34
66403;BMP180;53212;52.112;5.144;2022-12-10T14:41:23;101049.20;;;0.40
66403;BMP180;53212;52.112;5.144;2022-12-10T14:43:49;101036.60;;;0.50
66403;BMP180;53212;52.112;5.144;2022-12-10T14:46:28;101037.00;;;0.50
66403;BMP180;53212;52.112;5.144;2022-12-10T14:48:55;101036.20;;;0.56
66403;BMP180;53212;52.112;5.144;2022-12-10T14:51:25;101039.80;;;0.60
66403;BMP180;53212;52.112;5.144;2022-12-10T14:53:53;101033.20;;;0.70
66403;BMP180;53212;52.112;5.144;2022-12-10T14:56:31;101036.80;;;0.80
66403;BMP180;53212;52.112;5.144;2022-12-10T14:59:08;101039.60;;;0.80
66403;BMP180;53212;52.112;5.144;2022-12-10T15:01:48;101041.00;;;0.80
66403;BMP180;53212;52.112;5.144;2022-12-10T15:04:19;101046.40;;;0.82
66403;BMP180;53212;52.112;5.144;2022-12-10T15:06:46;101045.40;;;0.90
66403;BMP180;53212;52.112;5.144;2022-12-10T15:09:20;101040.80;;;0.90
66403;BMP180;53212;52.112;5.144;2022-12-10T15:11:57;101051.80;;;0.80
66403;BMP180;53212;52.112;5.144;2022-12-10T15:14:24;101053.00;;;0.70
66403;BMP180;53212;52.112;5.144;2022-12-10T15:16:51;101048.40;;;0.70
66403;BMP180;53212;52.112;5.144;2022-12-10T15:24:46;101042.20;;;0.56
66403;BMP180;53212;52.112;5.144;2022-12-10T15:27:19;101045.60;;;0.50
66403;BMP180;53212;52.112;5.144;2022-12-10T15:29:46;101041.40;;;0.50
66403;BMP180;53212;52.112;5.144;2022-12-10T15:32:17;101040.00;;;0.50
66403;BMP180;53212;52.112;5.144;2022-12-10T15:34:53;101045.20;;;0.52
66403;BMP180;53212;52.112;5.144;2022-12-10T15:37:37;101049.60;;;0.60
66403;BMP180;53212;52.112;5.144;2022-12-10T15:40:19;101056.80;;;0.64
66403;BMP180;53212;52.112;5.144;2022-12-10T15:42:46;101062.60;;;0.68
66403;BMP180;53212;52.112;5.144;2022-12-10T15:45:21;101052.40;;;0.70
66403;BMP180;53212;52.112;5.144;2022-12-10T15:47:47;101045.80;;;0.70
66403;BMP180;53212;52.112;5.144;2022-12-10T15:50:13;101044.20;;;0.72
66403;BMP180;53212;52.112;5.144;2022-12-10T15:52:38;101042.60;;;0.80
66403;BMP180;53212;52.112;5.144;2022-12-10T15:55:05;101046.80;;;0.80
66403;BMP180;53212;52.112;5.144;2022-12-10T15:57:37;101042.00;;;0.80
66403;BMP180;53212;52.112;5.144;2022-12-10T16:00:21;101045.60;;;0.80
66403;BMP180;53212;52.112;5.144;2022-12-10T16:02:59;101047.00;;;0.86
66403;BMP180;53212;52.112;5.144;2022-12-10T16:05:28;101044.20;;;0.90
66403;BMP180;53212;52.112;5.144;2022-12-10T16:07:58;101039.40;;;0.90
66403;BMP180;53212;52.112;5.144;2022-12-10T16:10:27;101043.40;;;0.90
66403;BMP180;53212;52.112;5.144;2022-12-10T16:13:03;101051.60;;;0.90
66403;BMP180;53212;52.112;5.144;2022-12-10T16:15:34;101047.60;;;0.90
66403;BMP180;53212;52.112;5.144;2022-12-10T16:18:03;101051.40;;;0.90
66403;BMP180;53212;52.112;5.144;2022-12-10T16:20:31;101047.60;;;0.80
66403;BMP180;53212;52.112;5.144;2022-12-10T16:22:58;101055.20;;;0.80
66403;BMP180;53212;52.112;5.144;2022-12-10T16:25:28;101053.60;;;0.80
66403;BMP180;53212;52.112;5.144;2022-12-10T16:27:54;101056.20;;;0.90